sensor_id;sensor_type;location;lat;lon;timestamp;P1;durP1;ratioP1;P2;durP2;ratioP2
28988;SDS011;16089;59.952;10.818;2022-07-29T00:01:17;1.55;;;0.55;;
28988;SDS011;16089;59.952;10.818;2022-07-29T00:03:44;1.80;;;0.40;;
28988;SDS011;16089;59.952;10.818;2022-07-29T00:06:11;1.48;;;0.50;;
28988;SDS011;16089;59.952;10.818;2022-07-29T00:08:38;1.08;;;0.50;;
28988;SDS011;16089;59.952;10.818;2022-07-29T00:11:04;1.15;;;0.47;;
28988;SDS011;16089;59.952;10.818;2022-07-29T00:13:30;4.25;;;0.70;;
28988;SDS011;16089;59.952;10.818;2022-07-29T00:15:57;2.28;;;0.47;;
28988;SDS011;16089;59.952;10.818;2022-07-29T00:18:23;2.17;;;0.60;;
28988;SDS011;16089;59.952;10.818;2022-07-29T00:20:50;3.08;;;0.57;;
28988;SDS011;16089;59.952;10.818;2022-07-29T00:23:17;0.90;;;0.50;;
28988;SDS011;16089;59.952;10.818;2022-07-29T00:25:44;1.60;;;0.68;;
28988;SDS011;16089;59.952;10.818;2022-07-29T00:28:10;1.60;;;0.60;;
28988;SDS011;16089;59.952;10.818;2022-07-29T00:30:37;1.27;;;0.50;;
28988;SDS011;16089;59.952;10.818;2022-07-29T00:33:03;1.40;;;0.50;;
28988;SDS011;16089;59.952;10.818;2022-07-29T00:35:29;1.35;;;0.40;;
28988;SDS011;16089;59.952;10.818;2022-07-29T00:38:10;2.72;;;0.65;;
28988;SDS011;16089;59.952;10.818;2022-07-29T00:40:37;1.23;;;0.43;;
28988;SDS011;16089;59.952;10.818;2022-07-29T00:43:04;2.10;;;0.60;;
28988;SDS011;16089;59.952;10.818;2022-07-29T00:45:30;2.03;;;0.68;;
28988;SDS011;16089;59.952;10.818;2022-07-29T00:47:57;1.70;;;0.35;;
28988;SDS011;16089;59.952;10.818;2022-07-29T00:50:23;2.05;;;0.50;;
28988;SDS011;16089;59.952;10.818;2022-07-29T00:52:50;1.63;;;0.63;;
28988;SDS011;16089;59.952;10.818;2022-07-29T00:55:17;1.35;;;0.40;;
28988;SDS011;16089;59.952;10.818;2022-07-29T00:57:45;1.92;;;0.60;;
28988;SDS011;16089;59.952;10.818;2022-07-29T01:00:13;5.78;;;0.70;;
28988;SDS011;16089;59.952;10.818;2022-07-29T01:02:40;0.82;;;0.40;;
28988;SDS011;16089;59.952;10.818;2022-07-29T01:05:07;2.03;;;0.50;;
28988;SDS011;16089;59.952;10.818;2022-07-29T01:07:33;1.80;;;0.63;;
28988;SDS011;16089;59.952;10.818;2022-07-29T01:10:01;3.10;;;0.60;;
28988;SDS011;16089;59.952;10.818;2022-07-29T01:12:28;1.60;;;0.50;;
28988;SDS011;16089;59.952;10.818;2022-07-29T01:14:58;1.30;;;0.60;;
28988;SDS011;16089;59.952;10.818;2022-07-29T01:17:26;2.40;;;0.50;;
28988;SDS011;16089;59.952;10.818;2022-07-29T01:19:55;1.85;;;0.50;;
28988;SDS011;16089;59.952;10.818;2022-07-29T01:22:25;1.00;;;0.50;;
28988;SDS011;16089;59.952;10.818;2022-07-29T01:28:01;4.75;;;0.50;;
28988;SDS011;16089;59.952;10.818;2022-07-29T01:30:29;2.95;;;0.50;;
28988;SDS011;16089;59.952;10.818;2022-07-29T01:32:59;1.35;;;0.50;;
28988;SDS011;16089;59.952;10.818;2022-07-29T01:35:26;1.52;;;0.57;;
28988;SDS011;16089;59.952;10.818;2022-07-29T01:37:55;1.80;;;0.60;;
28988;SDS011;16089;59.952;10.818;2022-07-29T01:40:24;1.25;;;0.50;;
28988;SDS011;16089;59.952;10.818;2022-07-29T01:42:53;2.67;;;0.60;;
28988;SDS011;16089;59.952;10.818;2022-07-29T01:45:21;0.80;;;0.50;;
28988;SDS011;16089;59.952;10.818;2022-07-29T01:47:52;2.80;;;0.85;;
28988;SDS011;16089;59.952;10.818;2022-07-29T01:50:20;2.70;;;0.77;;
28988;SDS011;16089;59.952;10.818;2022-07-29T01:52:52;2.03;;;0.45;;
28988;SDS011;16089;59.952;10.818;2022-07-29T01:55:20;1.40;;;0.40;;
28988;SDS011;16089;59.952;10.818;2022-07-29T01:57:48;2.45;;;0.70;;
28988;SDS011;16089;59.952;10.818;2022-07-29T02:00:15;1.70;;;0.45;;
28988;SDS011;16089;59.952;10.818;2022-07-29T02:02:42;3.17;;;0.55;;
28988;SDS011;16089;59.952;10.818;2022-07-29T02:05:12;1.60;;;0.68;;
28988;SDS011;16089;59.952;10.818;2022-07-29T02:07:40;1.42;;;0.60;;
28988;SDS011;16089;59.952;10.818;2022-07-29T02:10:07;2.38;;;0.60;;
28988;SDS011;16089;59.952;10.818;2022-07-29T02:12:34;1.75;;;0.60;;
28988;SDS011;16089;59.952;10.818;2022-07-29T02:15:02;2.38;;;0.80;;
28988;SDS011;16089;59.952;10.818;2022-07-29T02:17:31;2.88;;;0.73;;
28988;SDS011;16089;59.952;10.818;2022-07-29T02:19:59;2.08;;;0.55;;
28988;SDS011;16089;59.952;10.818;2022-07-29T02:22:28;1.67;;;0.60;;
28988;SDS011;16089;59.952;10.818;2022-07-29T02:24:55;1.42;;;0.60;;
28988;SDS011;16089;59.952;10.818;2022-07-29T02:27:23;1.92;;;0.73;;
28988;SDS011;16089;59.952;10.818;2022-07-29T02:29:52;2.97;;;0.82;;
28988;SDS011;16089;59.952;10.818;2022-07-29T02:32:18;3.97;;;0.77;;
28988;SDS011;16089;59.952;10.818;2022-07-29T02:34:47;4.35;;;0.80;;
28988;SDS011;16089;59.952;10.818;2022-07-29T02:37:14;4.30;;;0.75;;
28988;SDS011;16089;59.952;10.818;2022-07-29T02:39:43;2.72;;;0.80;;
28988;SDS011;16089;59.952;10.818;2022-07-29T02:42:11;2.05;;;0.70;;
28988;SDS011;16089;59.952;10.818;2022-07-29T02:44:38;2.72;;;1.05;;
28988;SDS011;16089;59.952;10.818;2022-07-29T02:47:07;3.20;;;0.70;;
28988;SDS011;16089;59.952;10.818;2022-07-29T02:49:37;2.05;;;0.60;;
28988;SDS011;16089;59.952;10.818;2022-07-29T02:52:06;4.40;;;0.60;;
28988;SDS011;16089;59.952;10.818;2022-07-29T02:54:37;1.52;;;0.50;;
28988;SDS011;16089;59.952;10.818;2022-07-29T02:57:06;2.67;;;0.82;;
28988;SDS011;16089;59.952;10.818;2022-07-29T02:59:36;1.88;;;0.60;;
28988;SDS011;16089;59.952;10.818;2022-07-29T03:02:03;1.50;;;0.63;;
28988;SDS011;16089;59.952;10.818;2022-07-29T03:04:31;1.60;;;0.80;;
28988;SDS011;16089;59.952;10.818;2022-07-29T03:06:58;4.30;;;0.70;;
28988;SDS011;16089;59.952;10.818;2022-07-29T03:09:25;2.60;;;0.90;;
28988;SDS011;16089;59.952;10.818;2022-07-29T03:11:52;1.95;;;0.63;;
28988;SDS011;16089;59.952;10.818;2022-07-29T03:14:21;2.13;;;0.77;;
28988;SDS011;16089;59.952;10.818;2022-07-29T03:16:48;2.60;;;0.70;;
28988;SDS011;16089;59.952;10.818;2022-07-29T03:19:14;3.22;;;0.80;;
28988;SDS011;16089;59.952;10.818;2022-07-29T03:21:41;1.90;;;0.60;;
28988;SDS011;16089;59.952;10.818;2022-07-29T03:24:07;2.88;;;0.70;;
28988;SDS011;16089;59.952;10.818;2022-07-29T03:26:34;4.85;;;0.85;;
28988;SDS011;16089;59.952;10.818;2022-07-29T03:29:00;1.52;;;0.63;;
28988;SDS011;16089;59.952;10.818;2022-07-29T03:31:28;1.70;;;0.80;;
28988;SDS011;16089;59.952;10.818;2022-07-29T03:33:54;1.50;;;0.60;;
28988;SDS011;16089;59.952;10.818;2022-07-29T03:36:20;1.33;;;0.73;;
28988;SDS011;16089;59.952;10.818;2022-07-29T03:38:47;1.80;;;0.80;;
28988;SDS011;16089;59.952;10.818;2022-07-29T03:41:14;2.40;;;0.75;;
28988;SDS011;16089;59.952;10.818;2022-07-29T03:43:40;2.15;;;0.80;;
28988;SDS011;16089;59.952;10.818;2022-07-29T03:46:07;2.42;;;0.73;;
28988;SDS011;16089;59.952;10.818;2022-07-29T03:48:37;1.88;;;0.80;;
28988;SDS011;16089;59.952;10.818;2022-07-29T03:51:05;1.02;;;0.63;;
28988;SDS011;16089;59.952;10.818;2022-07-29T03:53:32;1.60;;;0.70;;
28988;SDS011;16089;59.952;10.818;2022-07-29T03:56:00;1.90;;;0.73;;
28988;SDS011;16089;59.952;10.818;2022-07-29T03:58:28;4.38;;;0.80;;
28988;SDS011;16089;59.952;10.818;2022-07-29T04:00:56;1.70;;;0.82;;
28988;SDS011;16089;59.952;10.818;2022-07-29T04:03:22;2.13;;;0.80;;
28988;SDS011;16089;59.952;10.818;2022-07-29T04:05:58;2.83;;;0.80;;
28988;SDS011;16089;59.952;10.818;2022-07-29T04:08:25;1.65;;;0.80;;
28988;SDS011;16089;59.952;10.818;2022-07-29T04:10:52;2.65;;;1.25;;
28988;SDS011;16089;59.952;10.818;2022-07-29T04:13:18;1.77;;;0.70;;
28988;SDS011;16089;59.952;10.818;2022-07-29T04:15:44;1.70;;;0.70;;
28988;SDS011;16089;59.952;10.818;2022-07-29T04:18:11;2.95;;;0.80;;
28988;SDS011;16089;59.952;10.818;2022-07-29T04:20:37;3.03;;;0.90;;
28988;SDS011;16089;59.952;10.818;2022-07-29T04:23:05;4.10;;;0.80;;
28988;SDS011;16089;59.952;10.818;2022-07-29T04:25:32;1.70;;;0.73;;
28988;SDS011;16089;59.952;10.818;2022-07-29T04:27:58;3.13;;;0.98;;
28988;SDS011;16089;59.952;10.818;2022-07-29T04:30:28;1.05;;;0.60;;
28988;SDS011;16089;59.952;10.818;2022-07-29T04:32:54;2.30;;;0.80;;
28988;SDS011;16089;59.952;10.818;2022-07-29T04:35:20;5.28;;;0.80;;
28988;SDS011;16089;59.952;10.818;2022-07-29T04:37:47;2.83;;;0.70;;
28988;SDS011;16089;59.952;10.818;2022-07-29T04:40:15;2.72;;;0.98;;
28988;SDS011;16089;59.952;10.818;2022-07-29T04:42:41;1.67;;;0.60;;
28988;SDS011;16089;59.952;10.818;2022-07-29T04:45:08;1.92;;;0.80;;
28988;SDS011;16089;59.952;10.818;2022-07-29T04:47:34;4.80;;;0.88;;
28988;SDS011;16089;59.952;10.818;2022-07-29T04:50:00;1.83;;;0.80;;
28988;SDS011;16089;59.952;10.818;2022-07-29T04:52:27;1.40;;;0.65;;
28988;SDS011;16089;59.952;10.818;2022-07-29T04:54:53;3.85;;;0.93;;
28988;SDS011;16089;59.952;10.818;2022-07-29T04:57:21;2.20;;;0.73;;
28988;SDS011;16089;59.952;10.818;2022-07-29T04:59:47;1.55;;;0.60;;
28988;SDS011;16089;59.952;10.818;2022-07-29T05:02:14;2.17;;;0.90;;
28988;SDS011;16089;59.952;10.818;2022-07-29T05:04:41;2.45;;;0.80;;
28988;SDS011;16089;59.952;10.818;2022-07-29T05:07:07;3.72;;;0.70;;
28988;SDS011;16089;59.952;10.818;2022-07-29T05:09:33;3.25;;;0.90;;
28988;SDS011;16089;59.952;10.818;2022-07-29T05:12:00;3.33;;;0.77;;
28988;SDS011;16089;59.952;10.818;2022-07-29T05:14:28;2.15;;;0.73;;
28988;SDS011;16089;59.952;10.818;2022-07-29T05:16:54;2.95;;;0.80;;
28988;SDS011;16089;59.952;10.818;2022-07-29T05:19:22;1.88;;;0.80;;
28988;SDS011;16089;59.952;10.818;2022-07-29T05:21:48;2.38;;;0.70;;
28988;SDS011;16089;59.952;10.818;2022-07-29T05:24:14;1.70;;;0.80;;
28988;SDS011;16089;59.952;10.818;2022-07-29T05:26:41;3.50;;;0.80;;
28988;SDS011;16089;59.952;10.818;2022-07-29T05:29:07;2.75;;;0.90;;
28988;SDS011;16089;59.952;10.818;2022-07-29T05:31:35;2.63;;;0.60;;
28988;SDS011;16089;59.952;10.818;2022-07-29T05:34:02;2.88;;;0.85;;
28988;SDS011;16089;59.952;10.818;2022-07-29T05:36:28;2.95;;;0.90;;
28988;SDS011;16089;59.952;10.818;2022-07-29T05:38:55;4.93;;;0.98;;
28988;SDS011;16089;59.952;10.818;2022-07-29T05:41:21;1.92;;;0.70;;
28988;SDS011;16089;59.952;10.818;2022-07-29T05:43:47;4.18;;;0.90;;
28988;SDS011;16089;59.952;10.818;2022-07-29T05:46:14;4.72;;;0.80;;
28988;SDS011;16089;59.952;10.818;2022-07-29T05:48:42;3.75;;;1.10;;
28988;SDS011;16089;59.952;10.818;2022-07-29T05:51:08;3.17;;;0.80;;
28988;SDS011;16089;59.952;10.818;2022-07-29T05:53:35;4.32;;;0.95;;
28988;SDS011;16089;59.952;10.818;2022-07-29T05:56:03;2.78;;;1.23;;
28988;SDS011;16089;59.952;10.818;2022-07-29T05:58:29;5.15;;;1.50;;
28988;SDS011;16089;59.952;10.818;2022-07-29T06:00:56;9.32;;;4.15;;
28988;SDS011;16089;59.952;10.818;2022-07-29T06:03:24;4.57;;;1.38;;
28988;SDS011;16089;59.952;10.818;2022-07-29T06:05:51;3.95;;;1.50;;
28988;SDS011;16089;59.952;10.818;2022-07-29T06:08:18;3.67;;;1.40;;
28988;SDS011;16089;59.952;10.818;2022-07-29T06:10:44;8.32;;;1.15;;
28988;SDS011;16089;59.952;10.818;2022-07-29T06:13:11;7.40;;;1.48;;
28988;SDS011;16089;59.952;10.818;2022-07-29T06:15:38;7.28;;;1.52;;
28988;SDS011;16089;59.952;10.818;2022-07-29T06:18:04;4.50;;;1.52;;
28988;SDS011;16089;59.952;10.818;2022-07-29T06:20:34;7.13;;;1.38;;
28988;SDS011;16089;59.952;10.818;2022-07-29T06:23:01;4.80;;;1.50;;
28988;SDS011;16089;59.952;10.818;2022-07-29T06:25:29;8.52;;;1.60;;
28988;SDS011;16089;59.952;10.818;2022-07-29T06:27:57;5.40;;;1.50;;
28988;SDS011;16089;59.952;10.818;2022-07-29T06:30:23;7.38;;;1.65;;
28988;SDS011;16089;59.952;10.818;2022-07-29T06:32:50;6.10;;;1.70;;
28988;SDS011;16089;59.952;10.818;2022-07-29T06:35:16;7.40;;;1.80;;
28988;SDS011;16089;59.952;10.818;2022-07-29T06:37:43;8.50;;;1.90;;
28988;SDS011;16089;59.952;10.818;2022-07-29T06:40:11;7.47;;;1.70;;
28988;SDS011;16089;59.952;10.818;2022-07-29T06:42:55;5.57;;;1.60;;
28988;SDS011;16089;59.952;10.818;2022-07-29T06:45:22;6.63;;;1.90;;
28988;SDS011;16089;59.952;10.818;2022-07-29T06:47:49;4.75;;;1.20;;
28988;SDS011;16089;59.952;10.818;2022-07-29T06:50:15;4.35;;;1.40;;
28988;SDS011;16089;59.952;10.818;2022-07-29T06:52:42;8.60;;;2.00;;
28988;SDS011;16089;59.952;10.818;2022-07-29T06:55:08;5.80;;;1.60;;
28988;SDS011;16089;59.952;10.818;2022-07-29T06:57:36;4.47;;;1.63;;
28988;SDS011;16089;59.952;10.818;2022-07-29T07:00:03;6.68;;;1.75;;
28988;SDS011;16089;59.952;10.818;2022-07-29T07:02:30;6.05;;;1.83;;
28988;SDS011;16089;59.952;10.818;2022-07-29T07:04:57;4.38;;;1.40;;
28988;SDS011;16089;59.952;10.818;2022-07-29T07:07:23;4.97;;;1.52;;
28988;SDS011;16089;59.952;10.818;2022-07-29T07:09:50;6.70;;;1.60;;
28988;SDS011;16089;59.952;10.818;2022-07-29T07:12:16;7.40;;;2.58;;
28988;SDS011;16089;59.952;10.818;2022-07-29T07:14:44;7.47;;;3.97;;
28988;SDS011;16089;59.952;10.818;2022-07-29T07:17:10;7.18;;;2.30;;
28988;SDS011;16089;59.952;10.818;2022-07-29T07:19:37;12.15;;;2.72;;
28988;SDS011;16089;59.952;10.818;2022-07-29T07:22:03;6.18;;;1.80;;
28988;SDS011;16089;59.952;10.818;2022-07-29T07:24:29;6.05;;;1.60;;
28988;SDS011;16089;59.952;10.818;2022-07-29T07:26:56;8.85;;;2.10;;
28988;SDS011;16089;59.952;10.818;2022-07-29T07:29:22;8.02;;;1.98;;
28988;SDS011;16089;59.952;10.818;2022-07-29T07:31:50;8.43;;;2.30;;
28988;SDS011;16089;59.952;10.818;2022-07-29T07:34:16;16.40;;;3.70;;
28988;SDS011;16089;59.952;10.818;2022-07-29T07:36:43;7.45;;;2.10;;
28988;SDS011;16089;59.952;10.818;2022-07-29T07:39:09;4.07;;;1.48;;
28988;SDS011;16089;59.952;10.818;2022-07-29T07:41:35;6.28;;;1.27;;
28988;SDS011;16089;59.952;10.818;2022-07-29T07:44:02;5.47;;;1.63;;
28988;SDS011;16089;59.952;10.818;2022-07-29T07:46:28;5.65;;;1.50;;
28988;SDS011;16089;59.952;10.818;2022-07-29T07:48:56;5.70;;;1.35;;
28988;SDS011;16089;59.952;10.818;2022-07-29T07:51:22;5.57;;;1.45;;
28988;SDS011;16089;59.952;10.818;2022-07-29T07:53:49;5.13;;;1.27;;
28988;SDS011;16089;59.952;10.818;2022-07-29T07:56:15;7.95;;;1.38;;
28988;SDS011;16089;59.952;10.818;2022-07-29T07:58:41;3.97;;;0.93;;
28988;SDS011;16089;59.952;10.818;2022-07-29T08:01:08;5.22;;;0.93;;
28988;SDS011;16089;59.952;10.818;2022-07-29T08:03:35;3.00;;;1.00;;
28988;SDS011;16089;59.952;10.818;2022-07-29T08:06:02;5.70;;;1.90;;
28988;SDS011;16089;59.952;10.818;2022-07-29T08:08:29;5.20;;;1.40;;
28988;SDS011;16089;59.952;10.818;2022-07-29T08:10:55;4.88;;;1.08;;
28988;SDS011;16089;59.952;10.818;2022-07-29T08:13:22;3.38;;;0.98;;
28988;SDS011;16089;59.952;10.818;2022-07-29T08:15:49;8.95;;;1.80;;
28988;SDS011;16089;59.952;10.818;2022-07-29T08:18:22;6.53;;;1.50;;
28988;SDS011;16089;59.952;10.818;2022-07-29T08:20:48;5.43;;;1.40;;
28988;SDS011;16089;59.952;10.818;2022-07-29T08:23:16;4.20;;;1.10;;
28988;SDS011;16089;59.952;10.818;2022-07-29T08:25:44;4.57;;;1.15;;
28988;SDS011;16089;59.952;10.818;2022-07-29T08:28:10;5.25;;;1.33;;
28988;SDS011;16089;59.952;10.818;2022-07-29T08:30:37;6.32;;;0.88;;
28988;SDS011;16089;59.952;10.818;2022-07-29T08:33:03;4.30;;;1.02;;
28988;SDS011;16089;59.952;10.818;2022-07-29T08:35:30;5.10;;;1.10;;
28988;SDS011;16089;59.952;10.818;2022-07-29T08:37:56;4.75;;;1.23;;
28988;SDS011;16089;59.952;10.818;2022-07-29T08:40:24;5.00;;;1.92;;
28988;SDS011;16089;59.952;10.818;2022-07-29T08:42:51;5.60;;;1.92;;
28988;SDS011;16089;59.952;10.818;2022-07-29T08:45:17;3.88;;;1.10;;
28988;SDS011;16089;59.952;10.818;2022-07-29T08:47:44;3.58;;;1.17;;
28988;SDS011;16089;59.952;10.818;2022-07-29T08:50:11;2.58;;;0.82;;
28988;SDS011;16089;59.952;10.818;2022-07-29T08:52:38;12.85;;;1.60;;
28988;SDS011;16089;59.952;10.818;2022-07-29T08:55:05;5.43;;;1.30;;
28988;SDS011;16089;59.952;10.818;2022-07-29T08:57:34;4.30;;;1.40;;
28988;SDS011;16089;59.952;10.818;2022-07-29T09:00:00;3.63;;;1.40;;
28988;SDS011;16089;59.952;10.818;2022-07-29T09:02:28;1.92;;;0.60;;
28988;SDS011;16089;59.952;10.818;2022-07-29T09:04:55;3.90;;;1.10;;
28988;SDS011;16089;59.952;10.818;2022-07-29T09:07:24;2.58;;;0.88;;
28988;SDS011;16089;59.952;10.818;2022-07-29T09:09:51;3.53;;;0.70;;
28988;SDS011;16089;59.952;10.818;2022-07-29T09:12:17;3.35;;;0.70;;
28988;SDS011;16089;59.952;10.818;2022-07-29T09:14:45;11.57;;;1.10;;
28988;SDS011;16089;59.952;10.818;2022-07-29T09:17:11;4.53;;;0.98;;
28988;SDS011;16089;59.952;10.818;2022-07-29T09:19:38;2.13;;;0.73;;
28988;SDS011;16089;59.952;10.818;2022-07-29T09:22:05;3.80;;;1.00;;
28988;SDS011;16089;59.952;10.818;2022-07-29T09:24:39;1.50;;;0.40;;
28988;SDS011;16089;59.952;10.818;2022-07-29T09:27:09;1.80;;;0.75;;
28988;SDS011;16089;59.952;10.818;2022-07-29T09:29:36;6.25;;;0.95;;
28988;SDS011;16089;59.952;10.818;2022-07-29T09:32:08;3.83;;;0.88;;
28988;SDS011;16089;59.952;10.818;2022-07-29T09:34:34;2.13;;;0.80;;
28988;SDS011;16089;59.952;10.818;2022-07-29T09:37:01;6.00;;;0.77;;
28988;SDS011;16089;59.952;10.818;2022-07-29T09:39:28;2.88;;;0.88;;
28988;SDS011;16089;59.952;10.818;2022-07-29T09:41:56;4.07;;;2.33;;
28988;SDS011;16089;59.952;10.818;2022-07-29T09:44:24;3.33;;;1.27;;
28988;SDS011;16089;59.952;10.818;2022-07-29T09:46:57;3.78;;;1.20;;
28988;SDS011;16089;59.952;10.818;2022-07-29T09:49:25;2.83;;;0.90;;
28988;SDS011;16089;59.952;10.818;2022-07-29T09:52:05;2.05;;;0.82;;
28988;SDS011;16089;59.952;10.818;2022-07-29T09:54:32;2.42;;;0.82;;
28988;SDS011;16089;59.952;10.818;2022-07-29T09:57:01;3.08;;;1.13;;
28988;SDS011;16089;59.952;10.818;2022-07-29T09:59:28;1.77;;;0.60;;
28988;SDS011;16089;59.952;10.818;2022-07-29T10:01:54;1.77;;;0.60;;
28988;SDS011;16089;59.952;10.818;2022-07-29T10:04:21;3.42;;;0.90;;
28988;SDS011;16089;59.952;10.818;2022-07-29T10:06:59;3.40;;;0.80;;
28988;SDS011;16089;59.952;10.818;2022-07-29T10:09:26;2.13;;;0.77;;
28988;SDS011;16089;59.952;10.818;2022-07-29T10:12:05;3.15;;;0.60;;
28988;SDS011;16089;59.952;10.818;2022-07-29T10:14:32;3.47;;;0.80;;
28988;SDS011;16089;59.952;10.818;2022-07-29T10:16:59;1.83;;;0.60;;
28988;SDS011;16089;59.952;10.818;2022-07-29T10:19:26;2.67;;;0.63;;
28988;SDS011;16089;59.952;10.818;2022-07-29T10:21:52;1.70;;;0.65;;
28988;SDS011;16089;59.952;10.818;2022-07-29T10:24:20;1.58;;;0.65;;
28988;SDS011;16089;59.952;10.818;2022-07-29T10:26:47;1.95;;;0.60;;
28988;SDS011;16089;59.952;10.818;2022-07-29T10:29:13;1.65;;;0.55;;
28988;SDS011;16089;59.952;10.818;2022-07-29T10:31:41;2.60;;;0.60;;
28988;SDS011;16089;59.952;10.818;2022-07-29T10:34:11;9.40;;;0.93;;
28988;SDS011;16089;59.952;10.818;2022-07-29T10:36:43;4.10;;;0.98;;
28988;SDS011;16089;59.952;10.818;2022-07-29T10:39:16;3.03;;;0.70;;
28988;SDS011;16089;59.952;10.818;2022-07-29T10:41:54;2.80;;;0.90;;
28988;SDS011;16089;59.952;10.818;2022-07-29T10:44:22;3.55;;;0.80;;
28988;SDS011;16089;59.952;10.818;2022-07-29T10:46:51;1.50;;;0.60;;
28988;SDS011;16089;59.952;10.818;2022-07-29T10:49:19;3.00;;;0.80;;
28988;SDS011;16089;59.952;10.818;2022-07-29T10:54:43;2.05;;;0.80;;
28988;SDS011;16089;59.952;10.818;2022-07-29T10:57:12;2.35;;;0.73;;
28988;SDS011;16089;59.952;10.818;2022-07-29T10:59:38;2.78;;;0.70;;
28988;SDS011;16089;59.952;10.818;2022-07-29T11:04:59;2.05;;;0.70;;
28988;SDS011;16089;59.952;10.818;2022-07-29T11:07:26;3.45;;;0.80;;
28988;SDS011;16089;59.952;10.818;2022-07-29T11:12:47;2.25;;;0.70;;
28988;SDS011;16089;59.952;10.818;2022-07-29T11:15:13;3.28;;;0.90;;
28988;SDS011;16089;59.952;10.818;2022-07-29T11:20:39;1.80;;;0.70;;
28988;SDS011;16089;59.952;10.818;2022-07-29T11:23:19;4.07;;;1.10;;
28988;SDS011;16089;59.952;10.818;2022-07-29T11:28:31;4.53;;;2.50;;
28988;SDS011;16089;59.952;10.818;2022-07-29T11:30:57;4.57;;;1.00;;
28988;SDS011;16089;59.952;10.818;2022-07-29T11:33:28;3.05;;;0.68;;
28988;SDS011;16089;59.952;10.818;2022-07-29T11:36:06;2.85;;;0.80;;
28988;SDS011;16089;59.952;10.818;2022-07-29T11:38:33;2.58;;;0.88;;
28988;SDS011;16089;59.952;10.818;2022-07-29T11:43:47;4.45;;;0.85;;
28988;SDS011;16089;59.952;10.818;2022-07-29T11:46:13;2.95;;;0.63;;
28988;SDS011;16089;59.952;10.818;2022-07-29T11:48:41;2.60;;;0.68;;
28988;SDS011;16089;59.952;10.818;2022-07-29T11:51:08;2.17;;;0.63;;
28988;SDS011;16089;59.952;10.818;2022-07-29T11:53:35;4.65;;;0.90;;
28988;SDS011;16089;59.952;10.818;2022-07-29T11:56:01;4.70;;;0.80;;
28988;SDS011;16089;59.952;10.818;2022-07-29T11:58:30;3.13;;;0.70;;
28988;SDS011;16089;59.952;10.818;2022-07-29T12:00:58;2.20;;;0.70;;
28988;SDS011;16089;59.952;10.818;2022-07-29T12:03:25;2.00;;;0.80;;
28988;SDS011;16089;59.952;10.818;2022-07-29T12:05:52;1.42;;;0.50;;
28988;SDS011;16089;59.952;10.818;2022-07-29T12:08:18;2.30;;;0.55;;
28988;SDS011;16089;59.952;10.818;2022-07-29T12:10:47;3.20;;;0.60;;
28988;SDS011;16089;59.952;10.818;2022-07-29T12:13:13;1.08;;;0.60;;
28988;SDS011;16089;59.952;10.818;2022-07-29T12:15:40;1.90;;;0.55;;
28988;SDS011;16089;59.952;10.818;2022-07-29T12:18:12;2.40;;;0.75;;
28988;SDS011;16089;59.952;10.818;2022-07-29T12:20:39;1.75;;;0.95;;
28988;SDS011;16089;59.952;10.818;2022-07-29T12:23:06;2.35;;;0.77;;
28988;SDS011;16089;59.952;10.818;2022-07-29T12:25:33;2.58;;;0.70;;
28988;SDS011;16089;59.952;10.818;2022-07-29T12:28:00;2.40;;;0.40;;
28988;SDS011;16089;59.952;10.818;2022-07-29T12:30:34;3.42;;;0.50;;
28988;SDS011;16089;59.952;10.818;2022-07-29T12:33:00;4.47;;;1.30;;
28988;SDS011;16089;59.952;10.818;2022-07-29T12:35:28;3.75;;;2.15;;
28988;SDS011;16089;59.952;10.818;2022-07-29T12:37:54;3.47;;;1.10;;
28988;SDS011;16089;59.952;10.818;2022-07-29T12:40:22;1.60;;;0.60;;
28988;SDS011;16089;59.952;10.818;2022-07-29T12:43:07;4.28;;;1.30;;
28988;SDS011;16089;59.952;10.818;2022-07-29T12:45:34;2.30;;;0.80;;
28988;SDS011;16089;59.952;10.818;2022-07-29T12:48:01;1.40;;;0.60;;
28988;SDS011;16089;59.952;10.818;2022-07-29T12:50:29;2.55;;;0.60;;
28988;SDS011;16089;59.952;10.818;2022-07-29T12:53:07;3.42;;;0.77;;
28988;SDS011;16089;59.952;10.818;2022-07-29T12:55:41;1.52;;;0.63;;
28988;SDS011;16089;59.952;10.818;2022-07-29T12:58:07;2.05;;;0.85;;
28988;SDS011;16089;59.952;10.818;2022-07-29T13:00:34;1.80;;;0.88;;
28988;SDS011;16089;59.952;10.818;2022-07-29T13:03:00;2.00;;;0.65;;
28988;SDS011;16089;59.952;10.818;2022-07-29T13:05:39;1.45;;;0.60;;
28988;SDS011;16089;59.952;10.818;2022-07-29T13:08:10;1.92;;;0.50;;
28988;SDS011;16089;59.952;10.818;2022-07-29T13:10:37;1.45;;;0.70;;
28988;SDS011;16089;59.952;10.818;2022-07-29T13:13:04;1.60;;;0.70;;
28988;SDS011;16089;59.952;10.818;2022-07-29T13:15:31;3.45;;;0.60;;
28988;SDS011;16089;59.952;10.818;2022-07-29T13:17:57;2.10;;;0.65;;
28988;SDS011;16089;59.952;10.818;2022-07-29T13:20:24;0.90;;;0.50;;
28988;SDS011;16089;59.952;10.818;2022-07-29T13:22:53;1.25;;;0.40;;
28988;SDS011;16089;59.952;10.818;2022-07-29T13:25:23;0.95;;;0.50;;
28988;SDS011;16089;59.952;10.818;2022-07-29T13:27:50;1.10;;;0.40;;
28988;SDS011;16089;59.952;10.818;2022-07-29T13:30:16;0.77;;;0.50;;
28988;SDS011;16089;59.952;10.818;2022-07-29T13:32:42;1.92;;;0.57;;
28988;SDS011;16089;59.952;10.818;2022-07-29T13:35:09;1.33;;;0.60;;
28988;SDS011;16089;59.952;10.818;2022-07-29T13:37:36;1.27;;;0.50;;
28988;SDS011;16089;59.952;10.818;2022-07-29T13:40:06;2.92;;;0.55;;
28988;SDS011;16089;59.952;10.818;2022-07-29T13:42:33;0.70;;;0.50;;
28988;SDS011;16089;59.952;10.818;2022-07-29T13:44:59;1.05;;;0.40;;
28988;SDS011;16089;59.952;10.818;2022-07-29T13:47:26;3.03;;;0.40;;
28988;SDS011;16089;59.952;10.818;2022-07-29T13:49:53;1.55;;;0.50;;
28988;SDS011;16089;59.952;10.818;2022-07-29T13:52:19;2.25;;;0.47;;
28988;SDS011;16089;59.952;10.818;2022-07-29T13:54:46;3.03;;;0.40;;
28988;SDS011;16089;59.952;10.818;2022-07-29T13:57:14;1.58;;;0.50;;
28988;SDS011;16089;59.952;10.818;2022-07-29T13:59:41;0.88;;;0.40;;
28988;SDS011;16089;59.952;10.818;2022-07-29T14:02:08;1.70;;;0.50;;
28988;SDS011;16089;59.952;10.818;2022-07-29T14:04:35;1.52;;;0.60;;
28988;SDS011;16089;59.952;10.818;2022-07-29T14:07:01;1.45;;;0.50;;
28988;SDS011;16089;59.952;10.818;2022-07-29T14:09:28;1.92;;;0.50;;
28988;SDS011;16089;59.952;10.818;2022-07-29T14:11:54;0.52;;;0.30;;
28988;SDS011;16089;59.952;10.818;2022-07-29T14:14:22;1.38;;;0.50;;
28988;SDS011;16089;59.952;10.818;2022-07-29T14:16:48;2.78;;;0.50;;
28988;SDS011;16089;59.952;10.818;2022-07-29T14:19:15;1.27;;;0.60;;
28988;SDS011;16089;59.952;10.818;2022-07-29T14:21:41;2.55;;;0.55;;
28988;SDS011;16089;59.952;10.818;2022-07-29T14:24:08;2.78;;;1.40;;
28988;SDS011;16089;59.952;10.818;2022-07-29T14:26:34;2.22;;;0.82;;
28988;SDS011;16089;59.952;10.818;2022-07-29T14:29:01;4.20;;;0.70;;
28988;SDS011;16089;59.952;10.818;2022-07-29T14:31:28;1.35;;;0.70;;
28988;SDS011;16089;59.952;10.818;2022-07-29T14:33:55;1.95;;;0.52;;
28988;SDS011;16089;59.952;10.818;2022-07-29T14:36:21;2.65;;;0.73;;
28988;SDS011;16089;59.952;10.818;2022-07-29T14:38:48;1.38;;;0.60;;
28988;SDS011;16089;59.952;10.818;2022-07-29T14:41:14;1.60;;;0.50;;
28988;SDS011;16089;59.952;10.818;2022-07-29T14:43:41;1.55;;;0.70;;
28988;SDS011;16089;59.952;10.818;2022-07-29T14:46:07;2.05;;;0.40;;
28988;SDS011;16089;59.952;10.818;2022-07-29T14:48:35;3.35;;;0.70;;
28988;SDS011;16089;59.952;10.818;2022-07-29T14:51:01;1.92;;;0.60;;
28988;SDS011;16089;59.952;10.818;2022-07-29T14:53:28;2.55;;;0.65;;
28988;SDS011;16089;59.952;10.818;2022-07-29T14:55:54;2.03;;;0.60;;